createdAt,value
2023-04-23T00:03:43.095Z,68.10
2023-04-23T00:08:47.114Z,68.10
2023-04-23T00:13:51.652Z,68.10
2023-04-23T00:18:56.500Z,68.20
2023-04-23T00:24:00.226Z,68.30
2023-04-23T00:29:03.709Z,68.10
2023-04-23T00:34:08.624Z,68.10
2023-04-23T00:39:12.433Z,68.20
2023-04-23T00:44:16.403Z,68.30
2023-04-23T00:49:22.037Z,68.40
2023-04-23T00:54:25.540Z,68.60
2023-04-23T00:59:30.522Z,68.30
2023-04-23T01:04:37.502Z,68.10
2023-04-23T01:09:41.971Z,68.20
2023-04-23T01:14:45.781Z,68.30
2023-04-23T01:19:50.732Z,68.30
2023-04-23T01:24:56.041Z,68.10
2023-04-23T01:30:00.256Z,68.10
2023-04-23T01:35:05.119Z,68.20
2023-04-23T01:40:11.573Z,68.20
2023-04-23T01:45:15.627Z,68.30
2023-04-23T01:50:24.490Z,68.10
2023-04-23T01:55:29.453Z,68.20
2023-04-23T02:00:32.959Z,68.30
2023-04-23T02:05:37.941Z,68.30
2023-04-23T02:10:42.812Z,68.50
2023-04-23T02:15:46.358Z,68.50
2023-04-23T02:20:50.208Z,68.30
2023-04-23T02:25:55.018Z,68.30
2023-04-23T02:30:58.579Z,68.40
2023-04-23T02:36:02.314Z,68.50
2023-04-23T02:41:07.205Z,68.20
2023-04-23T02:46:10.870Z,68.20
2023-04-23T02:51:15.435Z,68.30
2023-04-23T02:56:20.868Z,68.50
2023-04-23T03:01:24.792Z,68.40
2023-04-23T03:06:29.025Z,68.20
2023-04-23T03:11:33.862Z,68.30
2023-04-23T03:16:38.065Z,68.40
2023-04-23T03:21:42.898Z,68.40
2023-04-23T03:26:47.904Z,68.30
2023-04-23T03:31:52.118Z,68.20
2023-04-23T03:36:55.570Z,68.30
2023-04-23T03:42:00.927Z,68.50
2023-04-23T03:47:07.083Z,68.50
2023-04-23T03:52:11.004Z,68.30
2023-04-23T03:57:17.749Z,68.40
2023-04-23T04:02:42.314Z,68.40
2023-04-23T04:07:46.007Z,68.50
2023-04-23T04:12:51.122Z,68.70
2023-04-23T04:17:54.622Z,68.50
2023-04-23T04:22:58.155Z,68.50
2023-04-23T04:28:03.566Z,68.50
2023-04-23T04:33:07.058Z,68.60
2023-04-23T04:38:10.551Z,68.70
2023-04-23T04:43:16.673Z,68.50
2023-04-23T04:48:20.164Z,68.50
2023-04-23T04:53:23.742Z,68.50
2023-04-23T04:58:28.568Z,68.60
2023-04-23T05:03:32.392Z,68.70
2023-04-23T05:08:35.988Z,68.70
2023-04-23T05:13:40.806Z,68.50
2023-04-23T05:18:44.327Z,68.50
2023-04-23T05:23:48.562Z,68.60
2023-04-23T05:28:53.390Z,68.70
2023-04-23T05:33:56.862Z,68.90
2023-04-23T05:39:00.247Z,68.70
2023-04-23T05:44:05.099Z,68.50
2023-04-23T05:49:08.573Z,68.60
2023-04-23T05:54:12.044Z,68.60
2023-04-23T05:59:17.186Z,68.70
2023-04-23T06:04:21.760Z,68.50
2023-04-23T06:09:25.559Z,68.50
2023-04-23T06:14:30.720Z,68.50
2023-04-23T06:19:34.170Z,68.60
2023-04-23T06:24:37.727Z,68.70
2023-04-23T06:29:42.661Z,68.60
2023-04-23T06:34:57.496Z,68.50
2023-04-23T06:40:04.315Z,68.50
2023-04-23T06:45:11.255Z,68.50
2023-04-23T06:50:14.741Z,68.60
2023-04-23T06:55:18.318Z,68.30
2023-04-23T07:00:24.354Z,68.30
2023-04-23T07:05:28.311Z,68.40
2023-04-23T07:10:31.901Z,68.50
2023-04-23T07:15:38.036Z,68.60
2023-04-23T07:20:41.626Z,68.60
2023-04-23T07:25:45.107Z,68.40
2023-04-23T07:30:50.356Z,68.30
2023-04-23T07:35:53.846Z,68.40
2023-04-23T07:40:57.351Z,68.50
2023-04-23T07:46:02.225Z,68.30
2023-04-23T07:51:06.541Z,68.20
2023-04-23T07:56:10.476Z,68.20
2023-04-23T08:01:15.470Z,68.30
2023-04-23T08:06:19.329Z,68.40
2023-04-23T08:11:23.688Z,68.10
2023-04-23T08:16:28.652Z,68.10
2023-04-23T08:21:32.971Z,68.30
2023-04-23T08:26:36.606Z,68.30
2023-04-23T08:31:41.621Z,68.30
2023-04-23T08:36:46.366Z,68.10
2023-04-23T08:41:57.218Z,68.10
2023-04-23T08:47:07.107Z,68.20
2023-04-23T08:52:18.775Z,68.10
2023-04-23T08:57:22.764Z,68.00
2023-04-23T09:02:27.776Z,68.00
2023-04-23T09:07:31.727Z,67.90
2023-04-23T09:12:37.431Z,68.10
2023-04-23T09:17:45.163Z,68.00
2023-04-23T09:22:52.547Z,67.60
2023-04-23T09:27:56.092Z,67.70
2023-04-23T09:33:01.030Z,67.80
2023-04-23T09:38:07.738Z,67.80
2023-04-23T09:43:12.579Z,67.80
2023-04-23T09:48:17.463Z,67.50
2023-04-23T09:53:21.694Z,67.40
2023-04-23T09:58:28.839Z,67.50
2023-04-23T10:03:33.985Z,67.70
2023-04-23T10:08:37.941Z,67.80
2023-04-23T10:13:41.727Z,67.90
2023-04-23T10:18:47.295Z,67.70
2023-04-23T10:23:52.786Z,67.50
2023-04-23T10:28:58.317Z,67.60
2023-04-23T10:34:06.725Z,67.70
2023-04-23T10:39:10.728Z,67.80
2023-04-23T10:44:17.278Z,67.70
2023-04-23T10:49:25.302Z,67.40
2023-04-23T10:54:32.605Z,67.40
2023-04-23T10:59:40.749Z,67.50
2023-04-23T11:04:56.002Z,67.60
2023-04-23T11:10:01.735Z,67.70
2023-04-23T11:15:16.460Z,67.90
2023-04-23T11:20:23.056Z,67.60
2023-04-23T11:25:28.659Z,67.40
2023-04-23T11:30:33.654Z,67.40
2023-04-23T11:35:40.800Z,67.50
2023-04-23T11:40:48.475Z,67.60
2023-04-23T11:45:51.965Z,67.50
2023-04-23T11:50:56.752Z,67.30
2023-04-23T11:56:00.129Z,67.40
2023-04-23T12:01:03.866Z,67.60
2023-04-23T12:06:08.924Z,67.70
2023-04-23T12:11:13.922Z,67.70
2023-04-23T12:16:17.410Z,67.40
2023-04-23T12:21:23.463Z,67.50
2023-04-23T12:26:29.455Z,67.70
2023-04-23T12:31:32.964Z,67.70
2023-04-23T12:36:40.960Z,67.70
2023-04-23T12:41:44.318Z,67.40
2023-04-23T12:46:57.238Z,67.40
2023-04-23T12:52:05.708Z,67.60
2023-04-23T12:57:14.205Z,67.70
2023-04-23T13:02:17.700Z,67.90
2023-04-23T13:07:22.722Z,67.90
2023-04-23T13:12:26.420Z,67.70
2023-04-23T13:17:29.916Z,67.60
2023-04-23T13:22:34.754Z,67.70
2023-04-23T13:27:38.106Z,67.80
2023-04-23T13:32:41.577Z,67.80
2023-04-23T13:37:47.629Z,67.50
2023-04-23T13:42:51.272Z,67.50
2023-04-23T13:47:54.717Z,67.50
2023-04-23T13:52:59.469Z,67.70
2023-04-23T13:58:02.996Z,67.70
2023-04-23T14:03:06.647Z,67.60
2023-04-23T14:08:12.984Z,67.40
2023-04-23T14:13:16.382Z,67.50
2023-04-23T14:18:19.802Z,67.60
2023-04-23T14:23:51.508Z,67.60
2023-04-23T14:28:59.621Z,67.20
2023-04-23T14:34:02.963Z,67.20
2023-04-23T14:39:07.870Z,67.20
2023-04-23T14:44:11.509Z,67.30
2023-04-23T14:49:15.038Z,67.30
2023-04-23T14:54:20.082Z,67.10
2023-04-23T14:59:24.381Z,67.10
2023-04-23T15:04:28.286Z,67.20
2023-04-23T15:09:33.742Z,67.30
2023-04-23T15:14:39.412Z,67.40
2023-04-23T15:19:43.039Z,67.20
2023-04-23T15:24:48.089Z,67.20
2023-04-23T15:29:51.824Z,67.30
2023-04-23T15:34:55.703Z,67.40
2023-04-23T15:40:00.434Z,67.70
2023-04-23T15:45:05.952Z,67.70
2023-04-23T15:50:11.423Z,67.50
2023-04-23T15:55:16.465Z,67.40
2023-04-23T16:00:20.201Z,67.30
2023-04-23T16:05:23.622Z,67.40
2023-04-23T16:10:29.956Z,67.60
2023-04-23T16:15:33.567Z,67.40
2023-04-23T16:20:37.121Z,67.40
2023-04-23T16:25:41.906Z,67.40
2023-04-23T16:30:45.317Z,67.40
2023-04-23T16:35:48.778Z,67.60
2023-04-23T16:40:53.595Z,67.50
2023-04-23T16:45:57.894Z,67.50
2023-04-23T16:51:01.298Z,67.60
2023-04-23T16:56:07.062Z,67.70
2023-04-23T17:01:10.865Z,67.90
2023-04-23T17:06:27.496Z,67.70
2023-04-23T17:11:32.952Z,67.60
2023-04-23T17:16:36.463Z,67.60
2023-04-23T17:21:40.033Z,67.80
2023-04-23T17:26:44.924Z,67.80
2023-04-23T17:31:48.361Z,67.60
2023-04-23T17:36:51.942Z,67.50
2023-04-23T17:41:57.579Z,67.70
2023-04-23T17:47:01.776Z,67.90
2023-04-23T17:52:06.395Z,67.80
2023-04-23T17:57:11.677Z,67.70
2023-04-23T18:02:16.148Z,67.70
2023-04-23T18:07:19.610Z,67.70
2023-04-23T18:12:24.481Z,67.90
2023-04-23T18:17:29.163Z,67.90
2023-04-23T18:22:32.887Z,67.70
2023-04-23T18:27:38.031Z,67.70
2023-04-23T18:32:48.500Z,68.10
2023-04-23T18:38:02.388Z,67.80
2023-04-23T18:43:07.130Z,67.70
2023-04-23T18:48:51.756Z,67.80
2023-04-23T18:53:55.283Z,67.80
2023-04-23T18:59:00.032Z,67.90
2023-04-23T19:04:03.952Z,68.00
2023-04-23T19:09:07.520Z,68.00
2023-04-23T19:14:12.351Z,67.80
2023-04-23T19:19:15.897Z,67.80
2023-04-23T19:24:19.259Z,67.80
2023-04-23T19:29:25.115Z,67.90
2023-04-23T19:34:28.646Z,67.80
2023-04-23T19:39:32.009Z,67.70
2023-04-23T19:44:37.059Z,67.70
2023-04-23T19:49:40.576Z,67.80
2023-04-23T19:54:48.919Z,68.00
2023-04-23T19:59:53.750Z,68.10
2023-04-23T20:04:57.141Z,68.20
2023-04-23T20:10:00.769Z,67.90
2023-04-23T20:15:07.092Z,67.80
2023-04-23T20:20:11.617Z,67.90
2023-04-23T20:25:16.205Z,68.00
2023-04-23T20:30:21.116Z,68.10
2023-04-23T20:35:24.568Z,67.80
2023-04-23T20:40:28.256Z,67.70
2023-04-23T20:45:34.514Z,67.90
2023-04-23T20:50:38.067Z,68.00
2023-04-23T20:55:41.534Z,67.90
2023-04-23T21:00:46.535Z,67.60
2023-04-23T21:05:51.856Z,67.60
2023-04-23T21:10:55.350Z,67.70
2023-04-23T21:16:00.207Z,67.80
2023-04-23T21:21:04.122Z,67.70
2023-04-23T21:26:08.560Z,67.60
2023-04-23T21:31:26.738Z,67.60
2023-04-23T21:36:30.147Z,67.70
2023-04-23T21:41:33.860Z,67.80
2023-04-23T21:46:38.680Z,67.70
2023-04-23T21:51:42.122Z,67.80
2023-04-23T21:56:45.568Z,67.80
2023-04-23T22:01:50.386Z,67.90
2023-04-23T22:06:53.917Z,68.00
2023-04-23T22:17:07.545Z,67.90
2023-04-23T22:22:11.179Z,67.90
2023-04-23T22:27:14.547Z,68.00
2023-04-23T22:32:19.547Z,68.00
2023-04-23T22:37:23.153Z,68.20
2023-04-23T22:42:26.563Z,68.00
2023-04-23T22:47:31.777Z,67.90
2023-04-23T22:52:35.174Z,67.90
2023-04-23T22:57:38.541Z,68.00
2023-04-23T23:02:43.393Z,68.10
2023-04-23T23:07:46.993Z,67.90
2023-04-23T23:12:50.405Z,67.90
2023-04-23T23:17:55.241Z,67.90
2023-04-23T23:22:58.761Z,67.90
2023-04-23T23:28:02.126Z,67.90
2023-04-23T23:33:07.174Z,67.90
2023-04-23T23:38:10.822Z,67.90
2023-04-23T23:43:14.364Z,68.00
2023-04-23T23:48:19.339Z,68.00
2023-04-23T23:53:22.705Z,68.10
2023-04-23T23:58:26.050Z,68.30
